createdAt,value
2023-07-05T00:00:10.997Z,0.00
2023-07-05T00:01:13.158Z,0.00
2023-07-05T00:02:10.945Z,0.00
2023-07-05T00:03:10.886Z,0.00
2023-07-05T00:04:10.891Z,0.00
2023-07-05T00:05:10.902Z,0.00
2023-07-05T00:06:10.809Z,0.00
2023-07-05T00:07:10.764Z,0.00
2023-07-05T00:08:10.754Z,0.00
2023-07-05T00:09:10.695Z,0.00
2023-07-05T00:10:15.605Z,0.00
2023-07-05T00:11:10.733Z,0.00
2023-07-05T00:12:11.103Z,0.00
2023-07-05T00:13:10.666Z,0.00
2023-07-05T00:14:10.572Z,0.00
2023-07-05T00:15:10.558Z,0.00
2023-07-05T00:16:10.504Z,0.00
2023-07-05T00:17:10.454Z,0.00
2023-07-05T00:18:10.423Z,0.00
2023-07-05T00:19:10.465Z,0.00
2023-07-05T00:20:10.391Z,0.00
2023-07-05T00:21:10.326Z,0.00
2023-07-05T00:22:10.295Z,0.00
2023-07-05T00:23:10.270Z,0.00
2023-07-05T00:24:10.300Z,0.00
2023-07-05T00:25:10.202Z,0.00
2023-07-05T00:26:10.164Z,0.00
2023-07-05T00:27:10.136Z,0.00
2023-07-05T00:28:12.608Z,0.00
2023-07-05T00:29:10.224Z,0.00
2023-07-05T00:30:10.042Z,0.00
2023-07-05T00:31:10.108Z,0.00
2023-07-05T00:32:09.976Z,0.00
2023-07-05T00:33:09.991Z,0.00
2023-07-05T00:34:09.991Z,0.00
2023-07-05T00:35:09.878Z,0.00
2023-07-05T00:36:09.878Z,0.00
2023-07-05T00:37:09.836Z,0.00
2023-07-05T00:38:09.795Z,0.00
2023-07-05T00:39:09.787Z,0.00
2023-07-05T00:40:09.796Z,0.00
2023-07-05T00:41:09.696Z,0.00
2023-07-05T00:42:09.681Z,0.00
2023-07-05T00:43:09.652Z,0.00
2023-07-05T00:44:09.675Z,0.00
2023-07-05T00:45:09.582Z,0.00
2023-07-05T00:46:09.653Z,0.00
2023-07-05T00:47:09.513Z,0.00
2023-07-05T00:48:09.492Z,0.00
2023-07-05T00:49:09.448Z,0.00
2023-07-05T00:50:09.457Z,0.00
2023-07-05T00:51:09.388Z,0.00
2023-07-05T00:52:09.415Z,0.00
2023-07-05T00:53:09.330Z,0.00
2023-07-05T00:54:09.293Z,0.00
2023-07-05T00:55:09.261Z,0.00
2023-07-05T00:56:09.237Z,0.00
2023-07-05T00:57:09.194Z,0.00
2023-07-05T00:58:09.236Z,0.00
2023-07-05T00:59:09.210Z,0.00
2023-07-05T01:00:09.099Z,0.00
2023-07-05T01:01:09.108Z,0.00
2023-07-05T01:02:09.093Z,0.00
2023-07-05T01:03:09.072Z,0.00
2023-07-05T01:04:09.038Z,0.00
2023-07-05T01:05:09.077Z,0.00
2023-07-05T01:06:08.921Z,0.00
2023-07-05T01:07:08.909Z,0.00
2023-07-05T01:08:08.908Z,0.00
2023-07-05T01:09:08.841Z,0.00
2023-07-05T01:10:08.976Z,0.00
2023-07-05T01:11:08.754Z,0.00
2023-07-05T01:12:08.731Z,0.00
2023-07-05T01:13:08.694Z,0.00
2023-07-05T01:14:08.738Z,0.00
2023-07-05T01:15:08.647Z,0.00
2023-07-05T01:16:08.598Z,0.00
2023-07-05T01:17:08.601Z,0.00
2023-07-05T01:18:08.655Z,0.00
2023-07-05T01:19:08.509Z,0.00
2023-07-05T01:20:08.526Z,0.00
2023-07-05T01:21:08.441Z,0.00
2023-07-05T01:22:08.423Z,0.00
2023-07-05T01:23:08.406Z,0.00
2023-07-05T01:24:08.361Z,0.00
2023-07-05T01:25:08.308Z,0.00
2023-07-05T01:26:08.352Z,0.00
2023-07-05T01:27:08.252Z,0.00
2023-07-05T01:28:08.321Z,0.00
2023-07-05T01:29:08.215Z,0.00
2023-07-05T01:30:08.189Z,0.00
2023-07-05T01:31:08.191Z,0.00
2023-07-05T01:32:08.101Z,0.00
2023-07-05T01:33:08.104Z,0.00
2023-07-05T01:34:08.113Z,0.00
2023-07-05T01:35:08.037Z,0.00
2023-07-05T01:36:08.007Z,0.00
2023-07-05T01:37:07.945Z,0.00
2023-07-05T01:38:07.938Z,0.00
2023-07-05T01:39:07.951Z,0.00
2023-07-05T01:40:07.874Z,0.00
2023-07-05T01:41:07.816Z,0.00
2023-07-05T01:42:07.803Z,0.00
2023-07-05T01:43:07.763Z,0.00
2023-07-05T01:44:07.777Z,0.00
2023-07-05T01:45:07.703Z,0.00
2023-07-05T01:46:07.689Z,0.00
2023-07-05T01:47:07.671Z,0.00
2023-07-05T01:48:07.614Z,0.00
2023-07-05T01:49:07.708Z,0.00
2023-07-05T01:50:07.547Z,0.00
2023-07-05T01:51:07.519Z,0.00
2023-07-05T01:52:07.486Z,0.00
2023-07-05T01:53:07.467Z,0.00
2023-07-05T01:54:07.470Z,0.00
2023-07-05T01:55:07.412Z,0.00
2023-07-05T01:56:07.354Z,0.00
2023-07-05T01:57:07.359Z,0.00
2023-07-05T01:58:07.291Z,0.00
2023-07-05T01:59:07.259Z,0.00
2023-07-05T02:00:07.280Z,0.00
2023-07-05T02:01:07.234Z,0.00
2023-07-05T02:02:07.217Z,0.00
2023-07-05T02:03:07.218Z,0.00
2023-07-05T02:04:07.105Z,0.00
2023-07-05T02:05:07.151Z,0.00
2023-07-05T02:06:07.047Z,0.00
2023-07-05T02:07:07.039Z,4.00
2023-07-05T02:08:07.005Z,4.00
2023-07-05T02:09:06.974Z,4.00
2023-07-05T02:10:06.979Z,4.00
2023-07-05T02:11:06.899Z,0.00
2023-07-05T02:12:06.868Z,0.00
2023-07-05T02:13:06.851Z,4.00
2023-07-05T02:14:06.811Z,4.00
2023-07-05T02:15:06.768Z,4.00
2023-07-05T02:16:06.793Z,4.00
2023-07-05T02:17:06.743Z,4.00
2023-07-05T02:18:06.781Z,8.00
2023-07-05T02:19:06.668Z,4.00
2023-07-05T02:20:06.702Z,8.00
2023-07-05T02:21:06.604Z,8.00
2023-07-05T02:22:06.622Z,8.00
2023-07-05T02:23:06.545Z,8.00
2023-07-05T02:24:06.505Z,8.00
2023-07-05T02:25:06.475Z,16.00
2023-07-05T02:26:06.438Z,16.00
2023-07-05T02:27:06.422Z,12.00
2023-07-05T02:28:06.456Z,16.00
2023-07-05T02:29:06.348Z,20.00
2023-07-05T02:30:06.380Z,20.00
2023-07-05T02:31:06.340Z,28.00
2023-07-05T02:32:06.252Z,28.00
2023-07-05T02:33:06.333Z,32.00
2023-07-05T02:34:06.245Z,36.00
2023-07-05T02:35:06.175Z,40.00
2023-07-05T02:36:06.144Z,44.00
2023-07-05T02:37:06.107Z,48.00
2023-07-05T02:38:06.074Z,56.00
2023-07-05T02:39:06.057Z,56.00
2023-07-05T02:40:06.094Z,60.00
2023-07-05T02:41:06.002Z,68.00
2023-07-05T02:42:06.048Z,80.00
2023-07-05T02:43:05.920Z,88.00
2023-07-05T02:44:05.958Z,96.00
2023-07-05T02:45:05.856Z,104.00
2023-07-05T02:46:05.859Z,116.00
2023-07-05T02:47:05.792Z,128.00
2023-07-05T02:48:05.811Z,136.00
2023-07-05T02:49:05.745Z,148.00
2023-07-05T02:50:05.769Z,160.00
2023-07-05T02:51:05.680Z,172.00
2023-07-05T02:52:05.648Z,184.00
2023-07-05T02:53:05.621Z,196.00
2023-07-05T02:54:05.589Z,212.00
2023-07-05T02:55:05.552Z,228.00
2023-07-05T02:56:05.593Z,248.00
2023-07-05T02:57:05.502Z,268.00
2023-07-05T02:58:05.536Z,292.00
2023-07-05T02:59:05.445Z,316.00
2023-07-05T03:00:05.394Z,344.00
2023-07-05T03:01:05.364Z,368.00
2023-07-05T03:02:05.449Z,400.00
2023-07-05T03:03:05.440Z,432.00
2023-07-05T03:04:05.363Z,468.00
2023-07-05T03:05:05.247Z,504.00
2023-07-05T03:06:05.238Z,540.00
2023-07-05T03:07:05.180Z,584.00
2023-07-05T03:08:05.164Z,624.00
2023-07-05T03:09:05.177Z,668.00
2023-07-05T03:10:05.109Z,704.00
2023-07-05T03:11:05.058Z,740.00
2023-07-05T03:12:05.020Z,772.00
2023-07-05T03:13:05.011Z,800.00
2023-07-05T03:14:05.099Z,824.00
2023-07-05T03:15:04.945Z,848.00
2023-07-05T03:16:04.910Z,868.00
2023-07-05T03:17:04.907Z,892.00
2023-07-05T03:18:04.878Z,916.00
2023-07-05T03:19:04.890Z,940.00
2023-07-05T03:20:04.781Z,972.00
2023-07-05T03:21:04.771Z,1016.00
2023-07-05T03:22:04.722Z,1064.00
2023-07-05T03:23:04.709Z,1116.00
2023-07-05T03:24:04.677Z,1176.00
2023-07-05T03:25:04.708Z,1240.00
2023-07-05T03:26:04.604Z,1312.00
2023-07-05T03:27:04.566Z,1380.00
2023-07-05T03:28:04.596Z,1452.00
2023-07-05T03:29:04.526Z,1520.00
2023-07-05T03:30:04.620Z,1584.00
2023-07-05T03:31:04.534Z,1644.00
2023-07-05T03:32:04.458Z,1708.00
2023-07-05T03:33:04.483Z,1768.00
2023-07-05T03:34:04.348Z,1832.00
2023-07-05T03:35:04.404Z,1892.00
2023-07-05T03:36:04.306Z,1940.00
2023-07-05T03:37:04.326Z,1976.00
2023-07-05T03:38:04.246Z,2016.00
2023-07-05T03:39:04.209Z,2060.00
2023-07-05T03:40:04.220Z,2104.00
2023-07-05T03:41:04.216Z,2160.00
2023-07-05T03:42:04.114Z,2212.00
2023-07-05T03:43:04.092Z,2240.00
2023-07-05T03:44:04.058Z,2272.00
2023-07-05T03:45:04.029Z,2296.00
2023-07-05T03:46:04.194Z,2328.00
2023-07-05T03:47:03.968Z,2360.00
2023-07-05T03:48:03.966Z,2384.00
2023-07-05T03:49:06.851Z,2404.00
2023-07-05T03:50:03.883Z,2416.00
2023-07-05T03:51:03.848Z,2424.00
2023-07-05T03:52:03.880Z,2444.00
2023-07-05T03:53:03.814Z,2472.00
2023-07-05T03:54:03.751Z,2520.00
2023-07-05T03:55:03.739Z,2588.00
2023-07-05T03:56:03.699Z,2664.00
2023-07-05T03:57:03.833Z,2744.00
2023-07-05T03:58:03.630Z,2824.00
2023-07-05T03:59:03.610Z,2896.00
2023-07-05T04:00:03.571Z,2960.00
2023-07-05T04:01:03.556Z,3028.00
2023-07-05T04:02:03.541Z,3096.00
2023-07-05T04:03:03.601Z,3164.00
2023-07-05T04:04:03.508Z,3228.00
2023-07-05T04:05:03.417Z,3280.00
2023-07-05T04:06:03.392Z,3304.00
2023-07-05T04:07:03.496Z,3244.00
2023-07-05T04:08:03.360Z,3116.00
2023-07-05T04:09:03.322Z,2956.00
2023-07-05T04:10:03.277Z,2824.00
2023-07-05T04:11:03.242Z,2764.00
2023-07-05T04:12:03.294Z,2776.00
2023-07-05T04:13:03.187Z,2848.00
2023-07-05T04:14:03.274Z,2956.00
2023-07-05T04:15:03.121Z,3080.00
2023-07-05T04:16:03.138Z,3216.00
2023-07-05T04:17:03.187Z,3352.00
2023-07-05T04:18:03.093Z,3484.00
2023-07-05T04:19:03.052Z,3592.00
2023-07-05T04:20:02.996Z,3684.00
2023-07-05T04:21:02.996Z,3772.00
2023-07-05T04:22:02.918Z,3880.00
2023-07-05T04:23:03.086Z,3992.00
2023-07-05T04:24:02.856Z,4124.00
2023-07-05T04:25:02.872Z,4264.00
2023-07-05T04:26:02.862Z,4452.00
2023-07-05T04:27:02.820Z,4712.00
2023-07-05T04:28:02.744Z,4916.00
2023-07-05T04:29:02.794Z,5020.00
2023-07-05T04:30:02.682Z,5084.00
2023-07-05T04:31:02.710Z,5108.00
2023-07-05T04:32:02.640Z,5172.00
2023-07-05T04:33:02.715Z,5244.00
2023-07-05T04:34:02.642Z,5176.00
2023-07-05T04:35:02.594Z,5012.00
2023-07-05T04:36:02.531Z,4828.00
2023-07-05T04:37:02.503Z,4672.00
2023-07-05T04:38:02.480Z,4564.00
2023-07-05T04:39:02.495Z,4504.00
2023-07-05T04:40:03.479Z,4448.00
2023-07-05T04:41:02.389Z,4412.00
2023-07-05T04:42:02.412Z,4432.00
2023-07-05T04:43:02.340Z,4436.00
2023-07-05T04:44:02.371Z,4404.00
2023-07-05T04:45:02.249Z,4344.00
2023-07-05T04:46:02.282Z,4208.00
2023-07-05T04:47:02.192Z,4032.00
2023-07-05T04:48:02.213Z,3928.00
2023-07-05T04:49:02.188Z,3884.00
2023-07-05T04:50:02.114Z,3968.00
2023-07-05T04:51:02.082Z,4016.00
2023-07-05T04:52:02.058Z,3920.00
2023-07-05T04:53:02.023Z,3680.00
2023-07-05T04:54:02.112Z,3328.00
2023-07-05T04:55:01.979Z,3116.00
2023-07-05T04:56:01.951Z,3024.00
2023-07-05T04:57:01.904Z,3000.00
2023-07-05T04:58:01.898Z,3044.00
2023-07-05T04:59:01.852Z,3188.00
2023-07-05T05:00:01.979Z,3284.00
2023-07-05T05:01:01.892Z,3340.00
2023-07-05T05:02:02.021Z,3408.00
2023-07-05T05:03:01.756Z,3488.00
2023-07-05T05:04:01.746Z,3548.00
2023-07-05T05:05:01.689Z,3612.00
2023-07-05T05:06:01.709Z,3820.00
2023-07-05T05:07:01.628Z,4148.00
2023-07-05T05:08:01.604Z,4440.00
2023-07-05T05:09:01.567Z,4516.00
2023-07-05T05:10:01.543Z,4424.00
2023-07-05T05:11:01.632Z,4368.00
2023-07-05T05:12:01.481Z,4472.00
2023-07-05T05:13:01.459Z,4540.00
2023-07-05T05:14:01.535Z,4504.00
2023-07-05T05:15:01.391Z,4284.00
2023-07-05T05:16:01.469Z,4172.00
2023-07-05T05:17:01.405Z,4040.00
2023-07-05T05:18:01.408Z,3656.00
2023-07-05T05:19:01.287Z,3268.00
2023-07-05T05:20:01.260Z,3108.00
2023-07-05T05:21:01.225Z,3060.00
2023-07-05T05:22:01.296Z,3116.00
2023-07-05T05:23:01.179Z,3272.00
2023-07-05T05:24:01.226Z,3556.00
2023-07-05T05:25:01.143Z,3952.00
2023-07-05T05:26:01.136Z,4492.00
2023-07-05T05:27:01.061Z,5140.00
2023-07-05T05:28:01.128Z,5724.00
2023-07-05T05:29:00.997Z,5960.00
2023-07-05T05:30:07.395Z,5776.00
2023-07-05T05:31:00.979Z,5564.00
2023-07-05T05:32:00.933Z,5628.00
2023-07-05T05:33:00.923Z,5700.00
2023-07-05T05:34:00.910Z,5744.00
2023-07-05T05:35:00.833Z,6020.00
2023-07-05T05:36:00.809Z,5904.00
2023-07-05T05:37:00.776Z,5552.00
2023-07-05T05:38:00.749Z,5620.00
2023-07-05T05:39:00.710Z,5832.00
2023-07-05T05:40:00.760Z,6112.00
2023-07-05T05:41:00.698Z,6316.00
2023-07-05T05:42:00.630Z,6644.00
2023-07-05T05:43:00.604Z,6856.00
2023-07-05T05:44:00.584Z,6804.00
2023-07-05T05:45:00.560Z,6520.00
2023-07-05T05:46:00.631Z,5888.00
2023-07-05T05:47:00.585Z,5252.00
2023-07-05T05:48:00.495Z,4984.00
2023-07-05T05:49:00.455Z,5284.00
2023-07-05T05:50:00.404Z,6288.00
2023-07-05T05:51:00.386Z,7372.00
2023-07-05T05:52:00.406Z,8244.00
2023-07-05T05:53:00.345Z,8108.00
2023-07-05T05:54:00.304Z,7088.00
2023-07-05T05:55:00.280Z,5888.00
2023-07-05T05:56:00.256Z,4996.00
2023-07-05T05:57:00.223Z,4420.00
2023-07-05T05:58:00.277Z,3996.00
2023-07-05T05:59:00.171Z,4016.00
2023-07-05T06:00:00.168Z,4224.00
2023-07-05T06:01:00.117Z,4208.00
2023-07-05T06:02:00.105Z,4128.00
2023-07-05T06:03:00.141Z,4324.00
2023-07-05T06:04:00.099Z,4788.00
2023-07-05T06:05:00.024Z,5124.00
2023-07-05T06:05:59.975Z,5352.00
2023-07-05T06:06:59.943Z,5508.00
2023-07-05T06:07:59.921Z,5424.00
2023-07-05T06:08:59.940Z,5088.00
2023-07-05T06:10:00.023Z,4764.00
2023-07-05T06:10:59.836Z,4716.00
2023-07-05T06:11:59.818Z,4812.00
2023-07-05T06:12:59.796Z,4796.00
2023-07-05T06:14:00.580Z,4628.00
2023-07-05T06:14:59.738Z,4368.00
2023-07-05T06:16:12.057Z,4128.00
2023-07-05T06:16:59.712Z,4092.00
2023-07-05T06:17:59.714Z,4328.00
2023-07-05T06:18:59.621Z,4608.00
2023-07-05T06:19:59.656Z,4776.00
2023-07-05T06:20:59.699Z,5104.00
2023-07-05T06:21:59.539Z,5752.00
2023-07-05T06:22:59.511Z,6236.00
2023-07-05T06:23:59.500Z,6716.00
2023-07-05T06:24:59.529Z,7136.00
2023-07-05T06:25:59.509Z,7028.00
2023-07-05T06:26:59.414Z,6836.00
2023-07-05T06:27:59.373Z,6620.00
2023-07-05T06:28:59.364Z,6372.00
2023-07-05T06:29:59.329Z,5972.00
2023-07-05T06:30:59.393Z,5388.00
2023-07-05T06:31:59.268Z,4796.00
2023-07-05T06:32:59.270Z,4304.00
2023-07-05T06:33:59.271Z,4240.00
2023-07-05T06:34:59.336Z,4284.00
2023-07-05T06:35:59.158Z,4360.00
2023-07-05T06:36:59.189Z,4352.00
2023-07-05T06:37:59.116Z,4044.00
2023-07-05T06:38:59.082Z,4128.00
2023-07-05T06:39:59.091Z,4668.00
2023-07-05T06:40:59.066Z,4684.00
2023-07-05T06:41:59.003Z,4844.00
2023-07-05T06:42:59.024Z,5136.00
2023-07-05T06:43:58.949Z,5356.00
2023-07-05T06:44:58.924Z,5440.00
2023-07-05T06:45:58.910Z,5620.00
2023-07-05T06:46:58.922Z,6184.00
2023-07-05T06:47:58.918Z,7052.00
2023-07-05T06:48:58.830Z,8272.00
2023-07-05T06:49:58.787Z,9900.00
2023-07-05T06:50:58.761Z,11504.00
2023-07-05T06:51:58.748Z,12692.00
2023-07-05T06:53:16.585Z,13376.00
2023-07-05T06:53:58.678Z,13588.00
2023-07-05T06:54:58.649Z,14036.00
2023-07-05T06:55:58.625Z,14876.00
2023-07-05T06:56:58.637Z,15292.00
2023-07-05T06:57:58.581Z,15468.00
2023-07-05T06:58:58.595Z,15756.00
2023-07-05T06:59:58.519Z,15816.00
2023-07-05T07:00:58.503Z,16264.00
2023-07-05T07:01:58.511Z,17088.00
2023-07-05T07:02:58.490Z,17152.00
2023-07-05T07:03:58.455Z,17376.00
2023-07-05T07:04:58.464Z,16928.00
2023-07-05T07:05:58.375Z,15908.00
2023-07-05T07:06:58.347Z,15672.00
2023-07-05T07:07:58.339Z,16544.00
2023-07-05T07:08:58.293Z,16608.00
2023-07-05T07:09:58.276Z,16344.00
2023-07-05T07:10:58.300Z,16960.00
2023-07-05T07:11:58.230Z,17024.00
2023-07-05T07:12:58.198Z,16672.00
2023-07-05T07:13:58.209Z,15412.00
2023-07-05T07:14:58.148Z,13200.00
2023-07-05T07:15:58.161Z,11804.00
2023-07-05T07:16:58.154Z,11232.00
2023-07-05T07:17:58.097Z,11420.00
2023-07-05T07:18:58.074Z,11632.00
2023-07-05T07:19:58.032Z,12396.00
2023-07-05T07:20:58.028Z,12988.00
2023-07-05T07:21:58.046Z,13156.00
2023-07-05T07:22:57.988Z,13448.00
2023-07-05T07:23:58.010Z,13872.00
2023-07-05T07:24:57.908Z,14236.00
2023-07-05T07:25:57.935Z,14340.00
2023-07-05T07:26:57.942Z,13968.00
2023-07-05T07:27:57.910Z,13424.00
2023-07-05T07:28:57.809Z,12752.00
2023-07-05T07:29:57.790Z,12172.00
2023-07-05T07:30:57.787Z,11596.00
2023-07-05T07:31:57.763Z,11288.00
2023-07-05T07:32:57.767Z,11020.00
2023-07-05T07:33:57.788Z,10636.00
2023-07-05T07:34:57.677Z,10440.00
2023-07-05T07:35:57.658Z,9972.00
2023-07-05T07:36:57.629Z,9544.00
2023-07-05T07:37:57.619Z,9472.00
2023-07-05T07:38:57.583Z,9584.00
2023-07-05T07:39:57.628Z,10012.00
2023-07-05T07:40:57.566Z,10328.00
2023-07-05T07:41:57.510Z,10440.00
2023-07-05T07:42:57.506Z,10244.00
2023-07-05T07:43:57.479Z,9876.00
2023-07-05T07:44:57.446Z,9720.00
2023-07-05T07:45:57.495Z,9704.00
2023-07-05T07:46:57.403Z,9604.00
2023-07-05T07:47:57.401Z,9452.00
2023-07-05T07:48:57.356Z,9112.00
2023-07-05T07:49:57.338Z,9048.00
2023-07-05T07:50:57.373Z,9452.00
2023-07-05T07:51:57.346Z,10276.00
2023-07-05T07:52:57.258Z,11052.00
2023-07-05T07:53:57.243Z,11400.00
2023-07-05T07:54:57.219Z,11536.00
2023-07-05T07:55:57.182Z,10968.00
2023-07-05T07:56:57.170Z,10084.00
2023-07-05T07:57:57.265Z,9340.00
2023-07-05T07:58:57.136Z,9176.00
2023-07-05T07:59:57.099Z,9204.00
2023-07-05T08:00:57.185Z,8992.00
2023-07-05T08:01:57.066Z,8608.00
2023-07-05T08:02:57.541Z,8080.00
2023-07-05T08:03:57.185Z,7636.00
2023-07-05T08:04:57.124Z,7456.00
2023-07-05T08:05:56.957Z,7344.00
2023-07-05T08:06:56.926Z,7228.00
2023-07-05T08:07:56.928Z,7528.00
2023-07-05T08:08:56.875Z,8084.00
2023-07-05T08:09:56.908Z,8528.00
2023-07-05T08:10:56.935Z,8860.00
2023-07-05T08:11:56.808Z,8760.00
2023-07-05T08:12:56.785Z,8664.00
2023-07-05T08:13:56.848Z,8872.00
2023-07-05T08:14:56.756Z,8876.00
2023-07-05T08:15:56.826Z,8720.00
2023-07-05T08:16:56.696Z,8580.00
2023-07-05T08:17:56.744Z,8720.00
2023-07-05T08:18:56.635Z,9072.00
2023-07-05T08:19:56.621Z,9048.00
2023-07-05T08:20:56.712Z,8940.00
2023-07-05T08:21:56.621Z,8968.00
2023-07-05T08:22:56.560Z,9020.00
2023-07-05T08:23:56.645Z,9312.00
2023-07-05T08:24:56.492Z,9656.00
2023-07-05T08:25:56.472Z,9920.00
2023-07-05T08:26:56.513Z,10444.00
2023-07-05T08:27:56.485Z,11032.00
2023-07-05T08:28:56.401Z,11832.00
2023-07-05T08:29:56.386Z,12864.00
2023-07-05T08:30:56.717Z,13804.00
2023-07-05T08:31:56.417Z,14312.00
2023-07-05T08:32:56.408Z,14180.00
2023-07-05T08:33:56.429Z,13592.00
2023-07-05T08:34:56.261Z,13076.00
2023-07-05T08:35:56.255Z,12908.00
2023-07-05T08:36:56.220Z,12724.00
2023-07-05T08:37:56.203Z,11560.00
2023-07-05T08:38:56.215Z,10080.00
2023-07-05T08:39:56.207Z,8948.00
2023-07-05T08:40:56.205Z,8360.00
2023-07-05T08:41:56.096Z,7996.00
2023-07-05T08:42:56.091Z,7928.00
2023-07-05T08:43:56.056Z,8284.00
2023-07-05T08:44:56.022Z,8160.00
2023-07-05T08:45:56.095Z,7740.00
2023-07-05T08:46:56.118Z,7428.00
2023-07-05T08:47:56.012Z,7220.00
2023-07-05T08:48:55.938Z,7132.00
2023-07-05T08:49:55.906Z,7400.00
2023-07-05T08:51:13.312Z,8032.00
2023-07-05T08:51:55.997Z,8380.00
2023-07-05T08:52:55.844Z,8212.00
2023-07-05T08:53:55.805Z,7536.00
2023-07-05T08:54:55.794Z,7156.00
2023-07-05T08:55:55.762Z,7032.00
2023-07-05T08:56:55.754Z,7180.00
2023-07-05T08:57:55.776Z,8244.00
2023-07-05T08:58:55.699Z,9952.00
2023-07-05T08:59:55.664Z,11000.00
2023-07-05T09:00:55.839Z,11048.00
2023-07-05T09:01:55.824Z,11540.00
2023-07-05T09:02:55.631Z,12136.00
2023-07-05T09:03:55.720Z,12724.00
2023-07-05T09:04:55.556Z,13232.00
2023-07-05T09:05:55.534Z,13264.00
2023-07-05T09:06:55.504Z,13172.00
2023-07-05T09:07:55.503Z,13544.00
2023-07-05T09:08:55.475Z,13820.00
2023-07-05T09:09:55.476Z,14956.00
2023-07-05T09:10:55.777Z,15832.00
2023-07-05T09:11:55.392Z,16268.00
2023-07-05T09:12:55.483Z,15752.00
2023-07-05T09:13:55.451Z,14860.00
2023-07-05T09:14:55.328Z,14736.00
2023-07-05T09:15:55.295Z,15404.00
2023-07-05T09:16:55.303Z,15472.00
2023-07-05T09:17:55.353Z,14352.00
2023-07-05T09:18:55.224Z,13988.00
2023-07-05T09:19:55.210Z,13840.00
2023-07-05T09:20:55.472Z,14240.00
2023-07-05T09:21:55.234Z,15256.00
2023-07-05T09:22:55.198Z,16352.00
2023-07-05T09:23:55.163Z,18144.00
2023-07-05T09:24:55.088Z,19424.00
2023-07-05T09:25:56.235Z,20352.00
2023-07-05T09:26:55.046Z,20128.00
2023-07-05T09:27:55.089Z,18304.00
2023-07-05T09:28:54.993Z,16832.00
2023-07-05T09:29:54.980Z,16992.00
2023-07-05T09:30:54.993Z,15936.00
2023-07-05T09:31:54.919Z,15508.00
2023-07-05T09:32:54.956Z,15852.00
2023-07-05T09:33:54.951Z,15144.00
2023-07-05T09:34:54.867Z,14804.00
2023-07-05T09:35:55.069Z,15412.00
2023-07-05T09:36:54.866Z,14988.00
2023-07-05T09:37:54.815Z,13904.00
2023-07-05T09:38:54.789Z,13452.00
2023-07-05T09:39:54.824Z,14092.00
2023-07-05T09:40:54.742Z,15816.00
2023-07-05T09:41:54.716Z,17664.00
2023-07-05T09:42:54.749Z,17984.00
2023-07-05T09:43:54.678Z,17152.00
2023-07-05T09:44:54.658Z,15760.00
2023-07-05T09:45:54.976Z,15220.00
2023-07-05T09:46:54.652Z,15412.00
2023-07-05T09:47:54.680Z,16672.00
2023-07-05T09:48:54.680Z,18720.00
2023-07-05T09:50:03.911Z,19456.00
2023-07-05T09:50:54.514Z,20448.00
2023-07-05T09:51:54.485Z,21184.00
2023-07-05T09:52:54.470Z,21632.00
2023-07-05T09:53:54.507Z,20928.00
2023-07-05T09:54:54.428Z,19712.00
2023-07-05T09:55:54.556Z,18880.00
2023-07-05T09:56:55.822Z,17920.00
2023-07-05T09:57:54.472Z,18688.00
2023-07-05T09:58:54.553Z,19680.00
2023-07-05T09:59:54.342Z,19328.00
2023-07-05T10:00:54.306Z,18976.00
2023-07-05T10:01:54.322Z,19616.00
2023-07-05T10:02:54.390Z,17536.00
2023-07-05T10:03:54.363Z,13708.00
2023-07-05T10:04:54.298Z,12724.00
2023-07-05T10:05:54.475Z,13392.00
2023-07-05T10:06:54.197Z,14396.00
2023-07-05T10:07:54.286Z,15300.00
2023-07-05T10:08:54.217Z,16160.00
2023-07-05T10:09:54.114Z,17408.00
2023-07-05T10:10:54.102Z,17632.00
2023-07-05T10:11:54.114Z,17152.00
2023-07-05T10:12:54.092Z,17056.00
2023-07-05T10:13:54.056Z,17472.00
2023-07-05T10:14:54.070Z,17216.00
2023-07-05T10:15:54.235Z,16360.00
2023-07-05T10:16:54.008Z,16016.00
2023-07-05T10:17:54.145Z,15544.00
2023-07-05T10:18:53.933Z,15020.00
2023-07-05T10:19:53.915Z,14280.00
2023-07-05T10:20:53.965Z,13876.00
2023-07-05T10:21:53.885Z,13676.00
2023-07-05T10:22:53.859Z,13564.00
2023-07-05T10:23:53.834Z,13664.00
2023-07-05T10:24:53.819Z,14536.00
2023-07-05T10:25:54.107Z,15544.00
2023-07-05T10:26:53.832Z,16140.00
2023-07-05T10:27:53.764Z,17152.00
2023-07-05T10:28:53.735Z,18272.00
2023-07-05T10:29:53.714Z,19232.00
2023-07-05T10:30:53.733Z,19840.00
2023-07-05T10:31:53.724Z,20096.00
2023-07-05T10:32:53.732Z,19808.00
2023-07-05T10:33:53.655Z,19360.00
2023-07-05T10:34:53.623Z,19328.00
2023-07-05T10:35:53.839Z,19936.00
2023-07-05T10:36:53.624Z,20576.00
2023-07-05T10:37:53.561Z,20224.00
2023-07-05T10:38:53.599Z,18944.00
2023-07-05T10:39:53.521Z,18080.00
2023-07-05T10:40:53.570Z,17056.00
2023-07-05T10:41:53.469Z,15416.00
2023-07-05T10:42:54.334Z,13500.00
2023-07-05T10:43:53.432Z,11796.00
2023-07-05T10:44:53.448Z,10756.00
2023-07-05T10:45:53.677Z,10744.00
2023-07-05T10:46:53.431Z,12196.00
2023-07-05T10:47:53.636Z,14008.00
2023-07-05T10:48:53.316Z,14628.00
2023-07-05T10:49:53.317Z,14544.00
2023-07-05T10:50:53.490Z,14592.00
2023-07-05T10:51:53.254Z,14252.00
2023-07-05T10:52:53.304Z,15040.00
2023-07-05T10:53:53.216Z,17728.00
2023-07-05T10:54:53.224Z,19040.00
2023-07-05T10:55:53.379Z,19936.00
2023-07-05T10:56:53.156Z,20640.00
2023-07-05T10:57:53.130Z,20896.00
2023-07-05T10:58:53.202Z,20736.00
2023-07-05T10:59:53.093Z,20480.00
2023-07-05T11:00:53.237Z,20096.00
2023-07-05T11:01:53.112Z,19904.00
2023-07-05T11:02:53.057Z,19936.00
2023-07-05T11:03:53.022Z,20288.00
2023-07-05T11:04:53.096Z,20320.00
2023-07-05T11:05:53.033Z,20192.00
2023-07-05T11:06:52.959Z,20160.00
2023-07-05T11:07:52.926Z,20160.00
2023-07-05T11:08:52.901Z,20032.00
2023-07-05T11:09:52.913Z,20192.00
2023-07-05T11:10:53.283Z,20224.00
2023-07-05T11:11:52.840Z,20032.00
2023-07-05T11:12:52.822Z,19808.00
2023-07-05T11:13:52.883Z,19424.00
2023-07-05T11:14:52.785Z,19296.00
2023-07-05T11:15:54.250Z,19392.00
2023-07-05T11:16:52.824Z,19424.00
2023-07-05T11:17:52.741Z,19264.00
2023-07-05T11:18:52.701Z,19456.00
2023-07-05T11:19:52.692Z,19296.00
2023-07-05T11:20:52.858Z,19136.00
2023-07-05T11:21:52.631Z,19424.00
2023-07-05T11:22:52.727Z,19584.00
2023-07-05T11:23:52.602Z,19424.00
2023-07-05T11:24:52.577Z,19392.00
2023-07-05T11:25:52.556Z,19456.00
2023-07-05T11:26:52.539Z,19744.00
2023-07-05T11:27:52.564Z,20000.00
2023-07-05T11:28:52.503Z,20096.00
2023-07-05T11:29:52.510Z,20224.00
2023-07-05T11:30:52.490Z,19872.00
2023-07-05T11:31:52.473Z,19200.00
2023-07-05T11:32:52.442Z,18368.00
2023-07-05T11:33:52.479Z,18336.00
2023-07-05T11:34:52.392Z,18816.00
2023-07-05T11:35:52.355Z,19488.00
2023-07-05T11:36:52.339Z,19776.00
2023-07-05T11:37:52.322Z,20000.00
2023-07-05T11:38:52.300Z,19968.00
2023-07-05T11:39:52.347Z,19776.00
2023-07-05T11:40:52.261Z,19712.00
2023-07-05T11:41:52.235Z,20096.00
2023-07-05T11:42:52.220Z,20288.00
2023-07-05T11:43:52.203Z,20512.00
2023-07-05T11:44:52.188Z,20800.00
2023-07-05T11:45:52.224Z,20768.00
2023-07-05T11:46:52.139Z,20640.00
2023-07-05T11:47:52.155Z,20864.00
2023-07-05T11:48:52.109Z,20800.00
2023-07-05T11:49:52.088Z,20576.00
2023-07-05T11:50:52.136Z,20448.00
2023-07-05T11:51:52.094Z,20416.00
2023-07-05T11:52:52.035Z,20416.00
2023-07-05T11:53:52.007Z,20000.00
2023-07-05T11:54:51.980Z,19520.00
2023-07-05T11:55:51.968Z,20768.00
2023-07-05T11:56:51.952Z,21056.00
2023-07-05T11:57:51.979Z,21056.00
2023-07-05T11:58:51.913Z,18432.00
2023-07-05T11:59:51.911Z,17824.00
2023-07-05T12:00:51.908Z,19008.00
2023-07-05T12:01:51.905Z,18688.00
2023-07-05T12:02:51.872Z,14560.00
2023-07-05T12:03:51.926Z,10764.00
2023-07-05T12:04:51.791Z,10384.00
2023-07-05T12:05:51.806Z,12304.00
2023-07-05T12:06:51.754Z,14120.00
2023-07-05T12:07:51.749Z,14332.00
2023-07-05T12:08:51.714Z,16512.00
2023-07-05T12:09:51.751Z,16960.00
2023-07-05T12:10:51.681Z,17536.00
2023-07-05T12:11:51.670Z,14500.00
2023-07-05T12:12:51.663Z,15544.00